Time;durP1;ratioP1;P1;durP2;ratioP2;P2;SDS_P1;SDS_P2;PMS_P1;PMS_P2;Temp;Humidity;BMP_temperature;BMP_pressure;BME280_temperature;BME280_humidity;BME280_pressure;Samples;Min_cycle;Max_cycle;Signal;HPM_P1;HPM_P2
2022/10/27 00:03:00;;;;;;;12.13;5.50;;;12.90;99.90;;;;;;21176507;28;20554;-73
2022/10/27 00:13:05;;;;;;;10.17;4.93;;;12.80;99.90;;;;;;21174583;28;20235;-72
2022/10/27 00:23:07;;;;;;;11.53;5.03;;;12.70;99.90;;;;;;21172527;28;20655;-72
2022/10/27 00:33:08;;;;;;;11.30;5.17;;;12.60;99.90;;;;;;21171587;28;20600;-72
2022/10/27 00:43:28;;;;;;;10.20;4.37;;;12.60;99.90;;;;;;21172740;28;20233;-72
2022/10/27 00:53:31;;;;;;;8.13;4.20;;;12.50;99.90;;;;;;21172549;28;20248;-71
2022/10/27 01:03:33;;;;;;;8.50;4.03;;;12.40;99.90;;;;;;21170425;28;20208;-72
2022/10/27 01:13:35;;;;;;;21.23;5.10;;;12.40;99.90;;;;;;21169987;28;20230;-72
2022/10/27 01:23:57;;;;;;;24.93;6.60;;;12.50;99.90;;;;;;21169210;28;20214;-72
2022/10/27 01:34:18;;;;;;;35.07;7.90;;;12.50;99.90;;;;;;21168188;28;20270;-72
2022/10/27 01:44:30;;;;;;;68.17;8.67;;;12.50;99.90;;;;;;21167342;28;20207;-72
2022/10/27 01:54:33;;;;;;;32.23;7.47;;;12.50;99.90;;;;;;21166520;28;20278;-72
2022/10/27 02:05:11;;;;;;;21.93;7.30;;;12.50;99.90;;;;;;21166155;28;20207;-71
2022/10/27 02:15:32;;;;;;;31.13;6.90;;;12.40;99.90;;;;;;21164289;28;20298;-71
2022/10/27 02:25:50;;;;;;;34.70;7.50;;;12.40;99.90;;;;;;21161530;28;20222;-71
2022/10/27 02:35:54;;;;;;;18.53;6.60;;;12.40;99.90;;;;;;21162749;28;20248;-72
2022/10/27 02:45:55;;;;;;;25.40;6.80;;;12.30;99.90;;;;;;21163322;28;20206;-72
2022/10/27 02:55:57;;;;;;;21.10;6.57;;;12.20;99.90;;;;;;21163070;28;20234;-72
2022/10/27 03:05:58;;;;;;;29.53;6.80;;;12.20;99.90;;;;;;21162872;28;20652;-72
2022/10/27 03:16:00;;;;;;;36.67;6.67;;;11.90;99.90;;;;;;21162245;28;20238;-72
2022/10/27 03:26:02;;;;;;;38.37;7.00;;;12.00;99.90;;;;;;21164789;28;20217;-72
2022/10/27 03:36:04;;;;;;;13.27;6.80;;;12.10;99.90;;;;;;21178160;28;20290;-72
2022/10/27 03:46:08;;;;;;;26.40;6.73;;;12.20;99.90;;;;;;21177013;28;20203;-72
2022/10/27 03:56:11;;;;;;;24.70;6.37;;;12.20;99.90;;;;;;21176064;28;20299;-72
2022/10/27 04:06:13;;;;;;;12.67;6.47;;;12.10;99.90;;;;;;21175499;28;20205;-72
2022/10/27 04:16:15;;;;;;;52.20;6.57;;;12.10;99.90;;;;;;21174858;28;20230;-72
2022/10/27 04:26:16;;;;;;;54.73;6.63;;;12.20;99.90;;;;;;21170791;28;20652;-72
2022/10/27 04:36:18;;;;;;;38.67;6.53;;;12.20;99.90;;;;;;21171243;28;20600;-72
2022/10/27 04:46:20;;;;;;;40.57;6.37;;;12.10;99.90;;;;;;21171969;28;20669;-71
2022/10/27 04:56:21;;;;;;;28.17;6.33;;;12.00;99.90;;;;;;21171825;28;20229;-72
2022/10/27 05:06:23;;;;;;;21.30;6.03;;;12.00;99.90;;;;;;21169177;28;20557;-73
2022/10/27 05:16:25;;;;;;;20.10;6.10;;;12.00;99.90;;;;;;21168952;28;20229;-73
2022/10/27 05:26:27;;;;;;;17.83;5.40;;;12.00;99.90;;;;;;21168394;28;20266;-74
2022/10/27 05:36:30;;;;;;;7.00;5.53;;;12.10;99.90;;;;;;21167711;28;20302;-74
2022/10/27 05:46:32;;;;;;;12.77;5.80;;;12.00;99.90;;;;;;21148165;28;20261;-72
2022/10/27 05:56:33;;;;;;;19.50;7.50;;;12.10;99.90;;;;;;21163146;28;20236;-72
2022/10/27 06:06:35;;;;;;;11.43;6.70;;;12.10;99.90;;;;;;21164907;28;20654;-72
2022/10/27 06:16:38;;;;;;;12.00;6.87;;;12.00;99.90;;;;;;21163083;28;20718;-73
2022/10/27 06:26:39;;;;;;;28.93;7.83;;;12.00;99.90;;;;;;21094964;28;20669;-70
2022/10/27 06:36:41;;;;;;;17.47;7.83;;;12.00;99.90;;;;;;21100116;28;20688;-73
2022/10/27 06:46:43;;;;;;;16.33;8.10;;;12.10;99.90;;;;;;21161862;28;20584;-73
2022/10/27 06:56:44;;;;;;;17.63;8.47;;;12.20;99.90;;;;;;21161627;28;20234;-72
2022/10/27 07:06:46;;;;;;;9.97;7.47;;;12.30;99.90;;;;;;21175164;28;20213;-72
2022/10/27 07:16:47;;;;;;;29.53;8.57;;;12.30;99.90;;;;;;21177421;28;20248;-73
2022/10/27 07:32:06;;;;;;;18.00;9.00;;;12.30;99.90;;;;;;21235279;27;20576;-72
2022/10/27 07:42:08;;;;;;;17.30;8.87;;;12.30;99.90;;;;;;21234996;28;20208;-72
2022/10/27 07:52:09;;;;;;;11.83;8.30;;;12.40;99.90;;;;;;21234222;28;20216;-71
2022/10/27 08:02:11;;;;;;;13.23;7.63;;;12.60;99.90;;;;;;21232965;28;20266;-71
2022/10/27 08:12:13;;;;;;;15.37;8.63;;;12.70;99.90;;;;;;21231919;28;20338;-72
2022/10/27 08:22:14;;;;;;;15.10;7.87;;;12.70;99.90;;;;;;21229456;28;20238;-73
2022/10/27 08:32:16;;;;;;;21.37;10.50;;;12.90;99.90;;;;;;21229089;28;20240;-73
2022/10/27 08:42:41;;;;;;;13.77;8.17;;;12.90;99.90;;;;;;21180451;27;20210;-73
2022/10/27 08:52:49;;;;;;;8.90;7.10;;;13.00;99.90;;;;;;21173407;28;20668;-72
2022/10/27 09:02:59;;;;;;;13.20;6.70;;;13.10;99.90;;;;;;21170319;28;20319;-73
2022/10/27 09:13:15;;;;;;;9.40;6.77;;;13.20;99.90;;;;;;21170465;28;20209;-73
2022/10/27 09:23:38;;;;;;;11.67;7.60;;;13.40;99.90;;;;;;21169657;28;20230;-73
2022/10/27 09:33:48;;;;;;;10.23;6.93;;;13.60;99.90;;;;;;21169745;28;20263;-72
2022/10/27 09:43:54;;;;;;;12.13;8.13;;;13.80;99.90;;;;;;21168624;28;20263;-73
2022/10/27 09:54:02;;;;;;;12.00;8.07;;;13.90;99.90;;;;;;21167351;28;20649;-75
2022/10/27 10:04:27;;;;;;;10.90;7.80;;;14.00;99.90;;;;;;21167970;28;20230;-72
2022/10/27 10:14:29;;;;;;;16.13;8.77;;;14.30;99.90;;;;;;21166963;28;20210;-73
2022/10/27 10:24:33;;;;;;;16.00;9.47;;;14.50;99.90;;;;;;21163327;28;20298;-73
2022/10/27 10:34:35;;;;;;;15.07;9.10;;;14.50;99.90;;;;;;21164748;28;20213;-73
2022/10/27 10:44:37;;;;;;;20.13;9.20;;;14.70;99.90;;;;;;21164454;28;20241;-73
2022/10/27 10:54:41;;;;;;;14.90;9.00;;;14.70;99.90;;;;;;21163293;28;20256;-74
2022/10/27 11:04:46;;;;;;;14.30;9.37;;;14.90;99.90;;;;;;21163006;28;20722;-75
2022/10/27 11:14:49;;;;;;;22.77;10.33;;;15.10;99.90;;;;;;21162101;28;20258;-75
2022/10/27 11:25:01;;;;;;;15.20;9.17;;;15.30;99.90;;;;;;21162202;28;20545;-74
2022/10/27 11:35:23;;;;;;;17.77;9.43;;;15.60;99.90;;;;;;21160160;28;20206;-74
2022/10/27 11:46:01;;;;;;;14.87;9.23;;;16.00;99.90;;;;;;21159945;28;20296;-74
2022/10/27 11:56:20;;;;;;;15.40;8.60;;;16.70;99.90;;;;;;21087515;28;20528;-75
2022/10/27 12:06:42;;;;;;;11.93;8.00;;;16.80;99.90;;;;;;21113165;28;20571;-75
2022/10/27 12:16:50;;;;;;;15.30;7.00;;;17.20;99.90;;;;;;21172862;28;20253;-78
2022/10/27 12:27:16;;;;;;;13.87;6.93;;;17.40;99.90;;;;;;21171818;28;20244;-75
2022/10/27 12:37:27;;;;;;;11.77;6.90;;;17.50;99.90;;;;;;21172532;28;20659;-72
2022/10/27 12:47:38;;;;;;;7.47;6.10;;;17.70;99.90;;;;;;21173694;28;20286;-74
2022/10/27 12:57:51;;;;;;;13.43;6.23;;;17.90;99.90;;;;;;21148710;28;20563;-73
2022/10/27 13:07:55;;;;;;;11.30;6.77;;;18.20;99.90;;;;;;21109855;28;20240;-71
2022/10/27 13:18:26;;;;;;;16.97;6.70;;;18.50;99.90;;;;;;21159007;28;20213;-73
2022/10/27 13:29:07;;;;;;;11.57;6.20;;;18.50;99.90;;;;;;21129249;28;20287;-72
2022/10/27 13:39:15;;;;;;;10.03;5.53;;;18.60;99.90;;;;;;21138633;28;20198;-73
2022/10/27 13:49:40;;;;;;;8.50;5.60;;;18.70;99.90;;;;;;21140528;28;20235;-72
2022/10/27 13:59:44;;;;;;;8.70;5.13;;;18.80;99.90;;;;;;21161213;28;20219;-72
2022/10/27 14:09:49;;;;;;;8.90;5.27;;;18.80;99.90;;;;;;21164288;28;20287;-74
2022/10/27 14:20:02;;;;;;;12.07;5.70;;;18.90;99.90;;;;;;21165631;28;20210;-72
2022/10/27 14:30:06;;;;;;;15.87;5.60;;;19.10;99.90;;;;;;21163102;28;20245;-74
2022/10/27 14:40:19;;;;;;;13.50;5.63;;;19.30;99.90;;;;;;21163678;28;20281;-73
2022/10/27 14:50:27;;;;;;;11.27;4.80;;;19.70;99.90;;;;;;21164775;28;20256;-74
2022/10/27 15:00:31;;;;;;;18.03;5.10;;;19.80;99.90;;;;;;21163852;28;20570;-74
2022/10/27 15:10:38;;;;;;;14.93;5.30;;;19.50;99.90;;;;;;21163329;28;20241;-75
2022/10/27 15:20:40;;;;;;;19.37;8.10;;;19.20;99.90;;;;;;21162828;28;20250;-75
2022/10/27 15:30:43;;;;;;;17.20;9.33;;;18.90;99.90;;;;;;21144257;28;20253;-74
2022/10/27 15:40:46;;;;;;;14.40;6.10;;;18.40;99.90;;;;;;21161979;28;20571;-72
2022/10/27 15:51:00;;;;;;;11.87;4.67;;;18.30;99.90;;;;;;21174209;28;20236;-74
2022/10/27 16:01:09;;;;;;;11.20;4.90;;;18.10;99.90;;;;;;21178178;28;20206;-77
2022/10/27 16:11:12;;;;;;;12.23;6.30;;;17.90;99.90;;;;;;21180917;28;20323;-77
2022/10/27 16:21:27;;;;;;;14.03;6.47;;;17.60;99.90;;;;;;21179454;28;20712;-79
2022/10/27 16:31:28;;;;;;;15.20;6.80;;;17.40;99.90;;;;;;21175388;28;20235;-73
2022/10/27 16:41:31;;;;;;;15.67;7.40;;;17.20;99.90;;;;;;21174944;28;20735;-74
2022/10/27 16:51:33;;;;;;;14.77;8.50;;;17.00;99.90;;;;;;21173855;28;20239;-75
2022/10/27 17:01:35;;;;;;;15.00;7.10;;;16.90;99.90;;;;;;21173640;28;20649;-71
2022/10/27 17:11:37;;;;;;;11.17;6.87;;;16.70;99.90;;;;;;21172390;27;20279;-74
2022/10/27 17:21:38;;;;;;;16.93;7.77;;;16.40;99.90;;;;;;21171609;28;20208;-74
2022/10/27 17:31:40;;;;;;;19.43;10.70;;;16.40;99.90;;;;;;21105497;28;20245;-73
2022/10/27 17:41:42;;;;;;;24.57;12.33;;;16.20;99.90;;;;;;21168159;28;20206;-73
2022/10/27 17:51:43;;;;;;;25.13;12.33;;;16.10;99.90;;;;;;21167386;28;20237;-74
2022/10/27 18:01:47;;;;;;;20.07;10.50;;;15.90;99.90;;;;;;21169267;28;20202;-74
2022/10/27 18:11:49;;;;;;;20.93;9.57;;;15.80;99.90;;;;;;21164832;28;20233;-73
2022/10/27 18:21:51;;;;;;;18.53;9.20;;;15.80;99.90;;;;;;21096325;28;20203;-75
2022/10/27 18:31:53;;;;;;;12.93;9.10;;;15.60;99.90;;;;;;21153300;28;20242;-73
2022/10/27 18:41:54;;;;;;;21.30;10.63;;;15.60;99.90;;;;;;21163402;28;20210;-73
2022/10/27 18:51:56;;;;;;;21.17;9.83;;;15.50;99.90;;;;;;21163586;28;20237;-74
2022/10/27 19:01:58;;;;;;;17.77;8.90;;;15.50;99.90;;;;;;21163354;28;20213;-75
2022/10/27 19:12:00;;;;;;;19.00;9.30;;;15.50;99.90;;;;;;21162037;28;20233;-75
2022/10/27 19:22:01;;;;;;;20.93;8.43;;;15.40;99.90;;;;;;21137514;28;20565;-74
2022/10/27 19:32:04;;;;;;;14.90;8.47;;;15.50;99.90;;;;;;21076062;28;20612;-75
2022/10/27 19:42:05;;;;;;;24.43;9.30;;;15.50;99.90;;;;;;21075849;28;20234;-72
2022/10/27 19:52:07;;;;;;;22.33;9.20;;;15.40;99.90;;;;;;21074993;28;20575;-74
2022/10/27 20:02:10;;;;;;;18.07;9.47;;;15.40;99.90;;;;;;21075583;28;20286;-76
2022/10/27 20:12:11;;;;;;;23.20;10.27;;;15.30;99.90;;;;;;21073086;28;20514;-75
2022/10/27 20:22:13;;;;;;;16.57;10.13;;;15.20;99.90;;;;;;21074433;28;20210;-75
2022/10/27 20:32:15;;;;;;;22.03;10.37;;;15.10;99.90;;;;;;21114718;28;20233;-74
2022/10/27 20:42:16;;;;;;;19.83;9.53;;;15.00;99.90;;;;;;21087538;28;20211;-77
2022/10/27 20:52:18;;;;;;;18.93;11.33;;;15.00;99.90;;;;;;21088195;28;20234;-76
2022/10/27 21:02:20;;;;;;;18.67;10.20;;;14.90;99.90;;;;;;21087587;28;20245;-76
2022/10/27 21:12:21;;;;;;;19.17;10.13;;;14.80;99.90;;;;;;21086391;28;20277;-76
2022/10/27 21:22:23;;;;;;;28.97;9.93;;;14.80;99.90;;;;;;21085628;28;20565;-76
2022/10/27 21:32:25;;;;;;;19.30;9.20;;;14.80;99.90;;;;;;21085169;28;20234;-77
2022/10/27 21:42:26;;;;;;;15.10;9.40;;;14.70;99.90;;;;;;21084187;28;20203;-76
2022/10/27 21:52:28;;;;;;;17.47;10.20;;;14.70;99.90;;;;;;21083302;28;20241;-76
2022/10/27 22:02:30;;;;;;;19.00;9.37;;;14.80;99.90;;;;;;21082744;28;20312;-76
2022/10/27 22:12:32;;;;;;;25.70;10.73;;;14.70;99.90;;;;;;21081429;28;20233;-76
2022/10/27 22:22:33;;;;;;;29.20;12.87;;;14.70;99.90;;;;;;21145244;28;20318;-74
2022/10/27 22:32:35;;;;;;;26.13;11.57;;;14.70;99.90;;;;;;21162017;28;20232;-75
2022/10/27 22:42:37;;;;;;;24.80;12.27;;;14.70;99.90;;;;;;21163671;28;20216;-76
2022/10/27 22:52:38;;;;;;;26.43;12.83;;;14.70;99.90;;;;;;21162654;28;20564;-76
2022/10/27 23:02:40;;;;;;;18.10;10.50;;;14.70;99.90;;;;;;21162249;28;20229;-76
2022/10/27 23:12:42;;;;;;;22.47;9.90;;;14.70;99.90;;;;;;21161497;28;20233;-76
2022/10/27 23:22:43;;;;;;;17.07;9.57;;;14.60;99.90;;;;;;21160709;28;20230;-77
2022/10/27 23:32:45;;;;;;;17.43;9.87;;;14.60;99.90;;;;;;21160673;28;20234;-76
2022/10/27 23:42:46;;;;;;;21.27;10.53;;;14.50;99.90;;;;;;21160062;28;20209;-77
2022/10/27 23:52:48;;;;;;;17.27;10.97;;;14.60;99.90;;;;;;21159773;28;20293;-76
